Open Full Screen Window  High Contrast Mode
May 24, 2016 3:59 AM EDT
Weather Information
Wind Direction
  ---
Wind Speed
  00 kt (0 mph)
Wind Gust
  00 kt (0 mph)
Altimeter
30.03 in
Visibility
10 SM
Temperature
10° C
50° F
Dewpoint
08° C
46° F
Humidity
88%
1hr Rain Fall
00.00 in.
24hr Rain Fall
00.00 in.
Sky Condition
Clear
VFR

METAR KPOV 240759Z AUTO 00000KT 10SM CLR 10/08 A3003 RMK AO2 T01030081

*Background is not an actual portrayal of the airport.